sensor_id;sensor_type;location;lat;lon;timestamp;P1;durP1;ratioP1;P2;durP2;ratioP2
82288;SDS011;71889;39.264;-120.910;2023-11-21T00:03:12;14.02;;;6.47;;
82288;SDS011;71889;39.264;-120.910;2023-11-21T00:06:01;11.57;;;4.63;;
82288;SDS011;71889;39.264;-120.910;2023-11-21T00:08:48;7.03;;;2.90;;
82288;SDS011;71889;39.264;-120.910;2023-11-21T00:11:35;6.13;;;2.00;;
82288;SDS011;71889;39.264;-120.910;2023-11-21T00:14:23;5.57;;;2.05;;
82288;SDS011;71889;39.264;-120.910;2023-11-21T00:17:10;6.43;;;2.53;;
82288;SDS011;71889;39.264;-120.910;2023-11-21T00:19:57;5.95;;;2.72;;
82288;SDS011;71889;39.264;-120.910;2023-11-21T00:22:44;4.60;;;1.88;;
82288;SDS011;71889;39.264;-120.910;2023-11-21T00:25:32;4.72;;;2.05;;
82288;SDS011;71889;39.264;-120.910;2023-11-21T00:28:19;9.10;;;3.00;;
82288;SDS011;71889;39.264;-120.910;2023-11-21T00:31:06;7.00;;;2.15;;
82288;SDS011;71889;39.264;-120.910;2023-11-21T00:33:53;6.05;;;2.40;;
82288;SDS011;71889;39.264;-120.910;2023-11-21T00:36:41;6.85;;;2.92;;
82288;SDS011;71889;39.264;-120.910;2023-11-21T00:39:28;4.97;;;2.78;;
82288;SDS011;71889;39.264;-120.910;2023-11-21T00:42:17;7.10;;;3.85;;
82288;SDS011;71889;39.264;-120.910;2023-11-21T00:45:05;6.70;;;3.13;;
82288;SDS011;71889;39.264;-120.910;2023-11-21T00:47:53;13.95;;;6.30;;
82288;SDS011;71889;39.264;-120.910;2023-11-21T00:50:40;15.57;;;7.40;;
82288;SDS011;71889;39.264;-120.910;2023-11-21T00:53:27;21.92;;;11.52;;
82288;SDS011;71889;39.264;-120.910;2023-11-21T00:56:14;51.67;;;23.15;;
82288;SDS011;71889;39.264;-120.910;2023-11-21T00:59:01;63.63;;;27.55;;
82288;SDS011;71889;39.264;-120.910;2023-11-21T01:01:50;55.45;;;25.23;;
82288;SDS011;71889;39.264;-120.910;2023-11-21T01:04:38;61.58;;;29.67;;
82288;SDS011;71889;39.264;-120.910;2023-11-21T01:07:25;54.22;;;27.25;;
82288;SDS011;71889;39.264;-120.910;2023-11-21T01:10:30;47.72;;;22.38;;
82288;SDS011;71889;39.264;-120.910;2023-11-21T01:13:17;47.30;;;23.00;;
82288;SDS011;71889;39.264;-120.910;2023-11-21T01:16:04;38.45;;;19.52;;
82288;SDS011;71889;39.264;-120.910;2023-11-21T01:18:54;31.38;;;15.77;;
82288;SDS011;71889;39.264;-120.910;2023-11-21T01:21:42;27.02;;;12.63;;
82288;SDS011;71889;39.264;-120.910;2023-11-21T01:24:29;27.63;;;14.07;;
82288;SDS011;71889;39.264;-120.910;2023-11-21T01:27:16;26.45;;;12.90;;
82288;SDS011;71889;39.264;-120.910;2023-11-21T01:30:04;24.98;;;13.57;;
82288;SDS011;71889;39.264;-120.910;2023-11-21T01:32:53;20.73;;;9.50;;
82288;SDS011;71889;39.264;-120.910;2023-11-21T01:35:40;10.10;;;4.63;;
82288;SDS011;71889;39.264;-120.910;2023-11-21T01:38:27;22.17;;;9.07;;
82288;SDS011;71889;39.264;-120.910;2023-11-21T01:41:15;19.00;;;10.43;;
82288;SDS011;71889;39.264;-120.910;2023-11-21T01:44:20;23.25;;;12.35;;
82288;SDS011;71889;39.264;-120.910;2023-11-21T01:47:07;21.80;;;10.57;;
82288;SDS011;71889;39.264;-120.910;2023-11-21T01:49:54;13.23;;;6.47;;
82288;SDS011;71889;39.264;-120.910;2023-11-21T01:52:41;15.68;;;7.55;;
82288;SDS011;71889;39.264;-120.910;2023-11-21T01:55:28;9.77;;;3.53;;
82288;SDS011;71889;39.264;-120.910;2023-11-21T01:58:15;10.82;;;5.20;;
82288;SDS011;71889;39.264;-120.910;2023-11-21T02:01:02;7.32;;;3.10;;
82288;SDS011;71889;39.264;-120.910;2023-11-21T02:03:49;8.00;;;3.40;;
82288;SDS011;71889;39.264;-120.910;2023-11-21T02:06:36;3.47;;;1.90;;
82288;SDS011;71889;39.264;-120.910;2023-11-21T02:09:27;4.45;;;2.47;;
82288;SDS011;71889;39.264;-120.910;2023-11-21T02:12:15;4.38;;;2.45;;
82288;SDS011;71889;39.264;-120.910;2023-11-21T02:15:02;7.63;;;2.40;;
82288;SDS011;71889;39.264;-120.910;2023-11-21T02:18:00;5.38;;;2.58;;
82288;SDS011;71889;39.264;-120.910;2023-11-21T02:23:35;4.30;;;2.47;;
82288;SDS011;71889;39.264;-120.910;2023-11-21T02:26:22;4.15;;;2.45;;
82288;SDS011;71889;39.264;-120.910;2023-11-21T02:29:11;5.25;;;3.13;;
82288;SDS011;71889;39.264;-120.910;2023-11-21T02:31:58;5.90;;;4.00;;
82288;SDS011;71889;39.264;-120.910;2023-11-21T02:34:49;6.88;;;4.18;;
82288;SDS011;71889;39.264;-120.910;2023-11-21T02:37:36;8.07;;;2.80;;
82288;SDS011;71889;39.264;-120.910;2023-11-21T02:40:24;3.80;;;2.22;;
82288;SDS011;71889;39.264;-120.910;2023-11-21T02:43:12;8.13;;;2.55;;
82288;SDS011;71889;39.264;-120.910;2023-11-21T02:45:59;5.72;;;2.47;;
82288;SDS011;71889;39.264;-120.910;2023-11-21T02:48:45;70.00;;;31.50;;
82288;SDS011;71889;39.264;-120.910;2023-11-21T02:51:33;72.38;;;33.15;;
82288;SDS011;71889;39.264;-120.910;2023-11-21T02:54:20;59.95;;;25.38;;
82288;SDS011;71889;39.264;-120.910;2023-11-21T02:57:10;18.85;;;8.23;;
82288;SDS011;71889;39.264;-120.910;2023-11-21T02:59:57;7.78;;;3.55;;
82288;SDS011;71889;39.264;-120.910;2023-11-21T03:02:45;7.68;;;3.42;;
82288;SDS011;71889;39.264;-120.910;2023-11-21T03:05:33;5.72;;;3.65;;
82288;SDS011;71889;39.264;-120.910;2023-11-21T03:08:21;5.07;;;3.40;;
82288;SDS011;71889;39.264;-120.910;2023-11-21T03:11:08;6.47;;;3.28;;
82288;SDS011;71889;39.264;-120.910;2023-11-21T03:13:55;11.90;;;4.32;;
82288;SDS011;71889;39.264;-120.910;2023-11-21T03:16:42;9.35;;;5.00;;
82288;SDS011;71889;39.264;-120.910;2023-11-21T03:19:30;7.60;;;4.15;;
82288;SDS011;71889;39.264;-120.910;2023-11-21T03:22:17;4.10;;;2.33;;
82288;SDS011;71889;39.264;-120.910;2023-11-21T03:25:05;4.93;;;1.98;;
82288;SDS011;71889;39.264;-120.910;2023-11-21T03:27:56;7.13;;;3.28;;
82288;SDS011;71889;39.264;-120.910;2023-11-21T03:30:43;6.45;;;3.00;;
82288;SDS011;71889;39.264;-120.910;2023-11-21T03:33:30;5.38;;;2.30;;
82288;SDS011;71889;39.264;-120.910;2023-11-21T03:36:17;3.88;;;1.98;;
82288;SDS011;71889;39.264;-120.910;2023-11-21T03:39:04;9.02;;;3.10;;
82288;SDS011;71889;39.264;-120.910;2023-11-21T03:41:52;9.77;;;4.90;;
82288;SDS011;71889;39.264;-120.910;2023-11-21T03:44:39;8.88;;;4.47;;
82288;SDS011;71889;39.264;-120.910;2023-11-21T03:47:28;8.43;;;5.35;;
82288;SDS011;71889;39.264;-120.910;2023-11-21T03:50:15;9.07;;;4.30;;
82288;SDS011;71889;39.264;-120.910;2023-11-21T03:53:02;6.55;;;2.47;;
82288;SDS011;71889;39.264;-120.910;2023-11-21T03:55:49;4.47;;;2.92;;
82288;SDS011;71889;39.264;-120.910;2023-11-21T03:58:36;10.10;;;6.43;;
82288;SDS011;71889;39.264;-120.910;2023-11-21T04:01:23;6.70;;;3.08;;
82288;SDS011;71889;39.264;-120.910;2023-11-21T04:04:11;6.22;;;2.67;;
82288;SDS011;71889;39.264;-120.910;2023-11-21T04:06:58;12.15;;;4.70;;
82288;SDS011;71889;39.264;-120.910;2023-11-21T04:09:44;19.00;;;7.78;;
82288;SDS011;71889;39.264;-120.910;2023-11-21T04:12:31;11.68;;;5.63;;
82288;SDS011;71889;39.264;-120.910;2023-11-21T04:15:18;8.60;;;4.22;;
82288;SDS011;71889;39.264;-120.910;2023-11-21T04:18:05;5.55;;;3.88;;
82288;SDS011;71889;39.264;-120.910;2023-11-21T04:20:52;4.60;;;2.80;;
82288;SDS011;71889;39.264;-120.910;2023-11-21T04:23:39;3.58;;;1.92;;
82288;SDS011;71889;39.264;-120.910;2023-11-21T04:26:26;4.22;;;2.08;;
82288;SDS011;71889;39.264;-120.910;2023-11-21T04:29:13;2.55;;;1.10;;
82288;SDS011;71889;39.264;-120.910;2023-11-21T04:32:04;1.48;;;0.52;;
82288;SDS011;71889;39.264;-120.910;2023-11-21T04:34:51;1.25;;;0.68;;
82288;SDS011;71889;39.264;-120.910;2023-11-21T04:37:38;14.57;;;9.55;;
82288;SDS011;71889;39.264;-120.910;2023-11-21T04:40:25;9.88;;;6.05;;
82288;SDS011;71889;39.264;-120.910;2023-11-21T04:43:12;25.17;;;16.63;;
82288;SDS011;71889;39.264;-120.910;2023-11-21T04:45:59;18.30;;;10.52;;
82288;SDS011;71889;39.264;-120.910;2023-11-21T04:48:47;28.67;;;11.65;;
82288;SDS011;71889;39.264;-120.910;2023-11-21T04:51:34;21.55;;;9.57;;
82288;SDS011;71889;39.264;-120.910;2023-11-21T04:54:21;12.82;;;5.35;;
82288;SDS011;71889;39.264;-120.910;2023-11-21T04:57:08;7.95;;;3.63;;
82288;SDS011;71889;39.264;-120.910;2023-11-21T04:59:56;8.02;;;3.58;;
82288;SDS011;71889;39.264;-120.910;2023-11-21T05:02:42;5.80;;;2.78;;
82288;SDS011;71889;39.264;-120.910;2023-11-21T05:05:29;7.32;;;3.15;;
82288;SDS011;71889;39.264;-120.910;2023-11-21T05:08:16;10.90;;;3.20;;
82288;SDS011;71889;39.264;-120.910;2023-11-21T05:11:06;25.58;;;9.38;;
82288;SDS011;71889;39.264;-120.910;2023-11-21T05:13:53;26.13;;;9.80;;
82288;SDS011;71889;39.264;-120.910;2023-11-21T05:16:41;19.85;;;7.22;;
82288;SDS011;71889;39.264;-120.910;2023-11-21T05:19:28;20.20;;;8.18;;
82288;SDS011;71889;39.264;-120.910;2023-11-21T05:22:15;13.63;;;5.22;;
82288;SDS011;71889;39.264;-120.910;2023-11-21T05:25:03;12.13;;;4.53;;
82288;SDS011;71889;39.264;-120.910;2023-11-21T05:27:50;4.45;;;2.05;;
82288;SDS011;71889;39.264;-120.910;2023-11-21T05:30:38;14.50;;;3.88;;
82288;SDS011;71889;39.264;-120.910;2023-11-21T05:33:25;27.00;;;8.65;;
82288;SDS011;71889;39.264;-120.910;2023-11-21T05:36:12;13.02;;;6.05;;
82288;SDS011;71889;39.264;-120.910;2023-11-21T05:38:59;20.63;;;7.40;;
82288;SDS011;71889;39.264;-120.910;2023-11-21T05:41:46;33.45;;;13.77;;
82288;SDS011;71889;39.264;-120.910;2023-11-21T05:44:33;24.00;;;9.07;;
82288;SDS011;71889;39.264;-120.910;2023-11-21T05:47:20;19.02;;;6.88;;
82288;SDS011;71889;39.264;-120.910;2023-11-21T05:50:08;32.35;;;10.63;;
82288;SDS011;71889;39.264;-120.910;2023-11-21T05:52:57;9.82;;;3.35;;
82288;SDS011;71889;39.264;-120.910;2023-11-21T05:55:46;5.75;;;3.00;;
82288;SDS011;71889;39.264;-120.910;2023-11-21T05:58:33;9.55;;;4.72;;
82288;SDS011;71889;39.264;-120.910;2023-11-21T06:01:20;12.77;;;5.68;;
82288;SDS011;71889;39.264;-120.910;2023-11-21T06:04:11;9.23;;;3.80;;
82288;SDS011;71889;39.264;-120.910;2023-11-21T06:06:58;7.35;;;2.90;;
82288;SDS011;71889;39.264;-120.910;2023-11-21T06:09:46;7.43;;;2.83;;
82288;SDS011;71889;39.264;-120.910;2023-11-21T06:12:35;4.88;;;2.03;;
82288;SDS011;71889;39.264;-120.910;2023-11-21T06:15:22;5.90;;;1.83;;
82288;SDS011;71889;39.264;-120.910;2023-11-21T06:18:09;7.68;;;3.40;;
82288;SDS011;71889;39.264;-120.910;2023-11-21T06:20:57;8.15;;;2.97;;
82288;SDS011;71889;39.264;-120.910;2023-11-21T06:23:46;5.82;;;2.40;;
82288;SDS011;71889;39.264;-120.910;2023-11-21T06:26:33;4.80;;;1.65;;
82288;SDS011;71889;39.264;-120.910;2023-11-21T06:29:20;5.03;;;1.88;;
82288;SDS011;71889;39.264;-120.910;2023-11-21T06:32:07;4.28;;;1.80;;
82288;SDS011;71889;39.264;-120.910;2023-11-21T06:34:55;3.50;;;1.50;;
82288;SDS011;71889;39.264;-120.910;2023-11-21T06:37:42;5.90;;;1.73;;
82288;SDS011;71889;39.264;-120.910;2023-11-21T06:40:33;2.72;;;1.58;;
82288;SDS011;71889;39.264;-120.910;2023-11-21T06:43:20;5.30;;;1.50;;
82288;SDS011;71889;39.264;-120.910;2023-11-21T06:46:07;7.95;;;1.67;;
82288;SDS011;71889;39.264;-120.910;2023-11-21T06:48:54;3.90;;;1.40;;
82288;SDS011;71889;39.264;-120.910;2023-11-21T06:54:30;3.00;;;1.63;;
82288;SDS011;71889;39.264;-120.910;2023-11-21T06:57:18;5.20;;;1.73;;
82288;SDS011;71889;39.264;-120.910;2023-11-21T07:00:05;3.88;;;1.70;;
82288;SDS011;71889;39.264;-120.910;2023-11-21T07:02:55;5.43;;;1.60;;
82288;SDS011;71889;39.264;-120.910;2023-11-21T07:05:42;4.93;;;1.83;;
82288;SDS011;71889;39.264;-120.910;2023-11-21T07:08:29;4.50;;;1.98;;
82288;SDS011;71889;39.264;-120.910;2023-11-21T07:11:16;5.72;;;2.22;;
82288;SDS011;71889;39.264;-120.910;2023-11-21T07:14:03;7.45;;;2.67;;
82288;SDS011;71889;39.264;-120.910;2023-11-21T07:16:52;6.47;;;2.15;;
82288;SDS011;71889;39.264;-120.910;2023-11-21T07:19:39;4.82;;;2.03;;
82288;SDS011;71889;39.264;-120.910;2023-11-21T07:22:27;4.45;;;1.92;;
82288;SDS011;71889;39.264;-120.910;2023-11-21T07:25:14;7.40;;;2.40;;
82288;SDS011;71889;39.264;-120.910;2023-11-21T07:28:01;4.00;;;1.92;;
82288;SDS011;71889;39.264;-120.910;2023-11-21T07:30:48;4.78;;;2.00;;
82288;SDS011;71889;39.264;-120.910;2023-11-21T07:33:35;4.85;;;1.95;;
82288;SDS011;71889;39.264;-120.910;2023-11-21T07:36:23;5.57;;;1.75;;
82288;SDS011;71889;39.264;-120.910;2023-11-21T07:39:10;3.90;;;1.30;;
82288;SDS011;71889;39.264;-120.910;2023-11-21T07:41:57;8.75;;;2.10;;
82288;SDS011;71889;39.264;-120.910;2023-11-21T07:47:32;3.28;;;2.13;;
82288;SDS011;71889;39.264;-120.910;2023-11-21T07:50:20;7.93;;;2.83;;
82288;SDS011;71889;39.264;-120.910;2023-11-21T07:53:07;5.35;;;2.45;;
82288;SDS011;71889;39.264;-120.910;2023-11-21T07:55:55;4.40;;;1.63;;
82288;SDS011;71889;39.264;-120.910;2023-11-21T07:58:42;5.43;;;2.10;;
82288;SDS011;71889;39.264;-120.910;2023-11-21T08:01:30;4.22;;;2.40;;
82288;SDS011;71889;39.264;-120.910;2023-11-21T08:04:17;4.50;;;2.17;;
82288;SDS011;71889;39.264;-120.910;2023-11-21T08:07:04;3.10;;;1.85;;
82288;SDS011;71889;39.264;-120.910;2023-11-21T08:09:51;5.25;;;2.10;;
82288;SDS011;71889;39.264;-120.910;2023-11-21T08:12:38;4.50;;;1.92;;
82288;SDS011;71889;39.264;-120.910;2023-11-21T08:15:25;4.50;;;1.80;;
82288;SDS011;71889;39.264;-120.910;2023-11-21T08:18:12;5.47;;;2.20;;
82288;SDS011;71889;39.264;-120.910;2023-11-21T08:21:00;6.55;;;2.75;;
82288;SDS011;71889;39.264;-120.910;2023-11-21T08:23:48;6.53;;;2.92;;
82288;SDS011;71889;39.264;-120.910;2023-11-21T08:26:39;8.30;;;2.50;;
82288;SDS011;71889;39.264;-120.910;2023-11-21T08:29:26;7.68;;;3.20;;
82288;SDS011;71889;39.264;-120.910;2023-11-21T08:32:13;8.05;;;3.05;;
82288;SDS011;71889;39.264;-120.910;2023-11-21T08:35:00;6.85;;;3.35;;
82288;SDS011;71889;39.264;-120.910;2023-11-21T08:37:47;7.18;;;3.42;;
82288;SDS011;71889;39.264;-120.910;2023-11-21T08:40:34;9.35;;;2.90;;
82288;SDS011;71889;39.264;-120.910;2023-11-21T08:43:21;7.25;;;2.95;;
82288;SDS011;71889;39.264;-120.910;2023-11-21T08:46:09;4.15;;;2.33;;
82288;SDS011;71889;39.264;-120.910;2023-11-21T08:48:57;6.72;;;2.90;;
82288;SDS011;71889;39.264;-120.910;2023-11-21T08:51:44;6.97;;;2.60;;
82288;SDS011;71889;39.264;-120.910;2023-11-21T08:54:31;4.13;;;1.98;;
82288;SDS011;71889;39.264;-120.910;2023-11-21T08:57:19;7.20;;;2.92;;
82288;SDS011;71889;39.264;-120.910;2023-11-21T09:00:07;4.22;;;1.50;;
82288;SDS011;71889;39.264;-120.910;2023-11-21T09:02:57;3.72;;;1.60;;
82288;SDS011;71889;39.264;-120.910;2023-11-21T09:05:44;11.00;;;2.03;;
82288;SDS011;71889;39.264;-120.910;2023-11-21T09:08:31;6.90;;;2.08;;
82288;SDS011;71889;39.264;-120.910;2023-11-21T09:11:18;4.85;;;1.75;;
82288;SDS011;71889;39.264;-120.910;2023-11-21T09:14:05;4.68;;;1.42;;
82288;SDS011;71889;39.264;-120.910;2023-11-21T09:16:52;3.35;;;1.40;;
82288;SDS011;71889;39.264;-120.910;2023-11-21T09:19:39;5.65;;;1.73;;
82288;SDS011;71889;39.264;-120.910;2023-11-21T09:22:26;3.72;;;1.60;;
82288;SDS011;71889;39.264;-120.910;2023-11-21T09:25:15;3.55;;;1.73;;
82288;SDS011;71889;39.264;-120.910;2023-11-21T09:28:03;5.95;;;2.15;;
82288;SDS011;71889;39.264;-120.910;2023-11-21T09:30:53;6.35;;;1.70;;
82288;SDS011;71889;39.264;-120.910;2023-11-21T09:33:40;3.67;;;1.40;;
82288;SDS011;71889;39.264;-120.910;2023-11-21T09:36:27;6.40;;;1.40;;
82288;SDS011;71889;39.264;-120.910;2023-11-21T09:39:16;3.65;;;1.45;;
82288;SDS011;71889;39.264;-120.910;2023-11-21T09:42:10;2.60;;;1.13;;
82288;SDS011;71889;39.264;-120.910;2023-11-21T09:48:04;2.97;;;1.05;;
82288;SDS011;71889;39.264;-120.910;2023-11-21T09:50:52;2.08;;;0.95;;
82288;SDS011;71889;39.264;-120.910;2023-11-21T09:53:40;3.22;;;0.98;;
82288;SDS011;71889;39.264;-120.910;2023-11-21T09:56:30;3.03;;;1.63;;
82288;SDS011;71889;39.264;-120.910;2023-11-21T09:59:18;10.43;;;3.10;;
82288;SDS011;71889;39.264;-120.910;2023-11-21T10:02:07;6.43;;;2.45;;
82288;SDS011;71889;39.264;-120.910;2023-11-21T10:04:59;10.80;;;3.15;;
82288;SDS011;71889;39.264;-120.910;2023-11-21T10:07:46;6.10;;;2.30;;
82288;SDS011;71889;39.264;-120.910;2023-11-21T10:10:33;8.10;;;2.20;;
82288;SDS011;71889;39.264;-120.910;2023-11-21T10:13:21;7.00;;;2.78;;
82288;SDS011;71889;39.264;-120.910;2023-11-21T10:16:08;5.03;;;1.67;;
82288;SDS011;71889;39.264;-120.910;2023-11-21T10:18:57;4.03;;;1.65;;
82288;SDS011;71889;39.264;-120.910;2023-11-21T10:21:44;4.75;;;1.55;;
82288;SDS011;71889;39.264;-120.910;2023-11-21T10:24:31;4.03;;;1.27;;
82288;SDS011;71889;39.264;-120.910;2023-11-21T10:27:18;4.50;;;1.25;;
82288;SDS011;71889;39.264;-120.910;2023-11-21T10:30:06;2.88;;;1.05;;
82288;SDS011;71889;39.264;-120.910;2023-11-21T10:33:01;4.28;;;1.20;;
82288;SDS011;71889;39.264;-120.910;2023-11-21T10:35:48;2.88;;;1.13;;
82288;SDS011;71889;39.264;-120.910;2023-11-21T10:38:43;2.15;;;0.85;;
82288;SDS011;71889;39.264;-120.910;2023-11-21T10:41:31;3.05;;;0.88;;
82288;SDS011;71889;39.264;-120.910;2023-11-21T10:44:18;2.53;;;1.00;;
82288;SDS011;71889;39.264;-120.910;2023-11-21T10:47:12;3.10;;;0.85;;
82288;SDS011;71889;39.264;-120.910;2023-11-21T10:50:00;1.92;;;0.80;;
82288;SDS011;71889;39.264;-120.910;2023-11-21T10:52:47;3.97;;;0.88;;
82288;SDS011;71889;39.264;-120.910;2023-11-21T10:55:35;3.08;;;0.80;;
82288;SDS011;71889;39.264;-120.910;2023-11-21T10:58:22;3.38;;;1.10;;
82288;SDS011;71889;39.264;-120.910;2023-11-21T11:01:09;3.45;;;0.68;;
82288;SDS011;71889;39.264;-120.910;2023-11-21T11:04:00;3.30;;;0.85;;
82288;SDS011;71889;39.264;-120.910;2023-11-21T11:06:54;3.20;;;0.80;;
82288;SDS011;71889;39.264;-120.910;2023-11-21T11:09:42;2.80;;;0.70;;
82288;SDS011;71889;39.264;-120.910;2023-11-21T11:12:30;4.25;;;0.80;;
82288;SDS011;71889;39.264;-120.910;2023-11-21T11:15:17;5.13;;;0.70;;
82288;SDS011;71889;39.264;-120.910;2023-11-21T11:18:06;1.50;;;0.73;;
82288;SDS011;71889;39.264;-120.910;2023-11-21T11:20:54;1.77;;;0.70;;
82288;SDS011;71889;39.264;-120.910;2023-11-21T11:26:37;2.13;;;0.70;;
82288;SDS011;71889;39.264;-120.910;2023-11-21T11:35:52;1.15;;;0.50;;
82288;SDS011;71889;39.264;-120.910;2023-11-21T11:38:45;1.73;;;0.80;;
82288;SDS011;71889;39.264;-120.910;2023-11-21T11:41:32;3.05;;;0.90;;
82288;SDS011;71889;39.264;-120.910;2023-11-21T11:47:28;1.75;;;0.60;;
82288;SDS011;71889;39.264;-120.910;2023-11-21T11:50:18;1.48;;;0.47;;
82288;SDS011;71889;39.264;-120.910;2023-11-21T11:53:15;1.88;;;0.55;;
82288;SDS011;71889;39.264;-120.910;2023-11-21T11:59:08;0.95;;;0.50;;
82288;SDS011;71889;39.264;-120.910;2023-11-21T12:01:55;1.40;;;0.45;;
82288;SDS011;71889;39.264;-120.910;2023-11-21T12:04:43;2.72;;;0.77;;
82288;SDS011;71889;39.264;-120.910;2023-11-21T12:07:39;0.70;;;0.43;;
82288;SDS011;71889;39.264;-120.910;2023-11-21T12:10:36;3.40;;;0.82;;
82288;SDS011;71889;39.264;-120.910;2023-11-21T12:13:24;2.20;;;0.70;;
82288;SDS011;71889;39.264;-120.910;2023-11-21T12:16:12;4.80;;;1.40;;
82288;SDS011;71889;39.264;-120.910;2023-11-21T12:18:59;4.88;;;1.95;;
82288;SDS011;71889;39.264;-120.910;2023-11-21T12:21:46;6.57;;;1.15;;
82288;SDS011;71889;39.264;-120.910;2023-11-21T12:24:34;3.03;;;1.10;;
82288;SDS011;71889;39.264;-120.910;2023-11-21T12:27:21;2.40;;;0.65;;
82288;SDS011;71889;39.264;-120.910;2023-11-21T12:30:08;2.25;;;0.70;;
82288;SDS011;71889;39.264;-120.910;2023-11-21T12:32:59;5.38;;;0.70;;
82288;SDS011;71889;39.264;-120.910;2023-11-21T12:35:46;1.55;;;0.43;;
82288;SDS011;71889;39.264;-120.910;2023-11-21T12:38:34;3.72;;;1.02;;
82288;SDS011;71889;39.264;-120.910;2023-11-21T12:41:21;4.38;;;1.27;;
82288;SDS011;71889;39.264;-120.910;2023-11-21T12:44:09;3.85;;;1.02;;
82288;SDS011;71889;39.264;-120.910;2023-11-21T12:46:57;6.07;;;2.15;;
82288;SDS011;71889;39.264;-120.910;2023-11-21T12:49:44;22.40;;;6.28;;
82288;SDS011;71889;39.264;-120.910;2023-11-21T12:52:31;6.40;;;1.85;;
82288;SDS011;71889;39.264;-120.910;2023-11-21T12:55:20;20.98;;;5.53;;
82288;SDS011;71889;39.264;-120.910;2023-11-21T12:58:08;14.18;;;4.60;;
82288;SDS011;71889;39.264;-120.910;2023-11-21T13:00:55;14.40;;;3.03;;
82288;SDS011;71889;39.264;-120.910;2023-11-21T13:03:42;18.20;;;4.85;;
82288;SDS011;71889;39.264;-120.910;2023-11-21T13:09:20;21.80;;;6.63;;
82288;SDS011;71889;39.264;-120.910;2023-11-21T13:12:07;10.15;;;2.83;;
82288;SDS011;71889;39.264;-120.910;2023-11-21T13:15:03;1.98;;;0.70;;
82288;SDS011;71889;39.264;-120.910;2023-11-21T13:17:50;2.28;;;0.90;;
82288;SDS011;71889;39.264;-120.910;2023-11-21T13:20:39;2.85;;;0.80;;
82288;SDS011;71889;39.264;-120.910;2023-11-21T13:23:26;3.42;;;0.57;;
82288;SDS011;71889;39.264;-120.910;2023-11-21T13:26:14;1.70;;;0.60;;
82288;SDS011;71889;39.264;-120.910;2023-11-21T13:29:20;1.73;;;1.15;;
82288;SDS011;71889;39.264;-120.910;2023-11-21T13:32:07;5.05;;;0.90;;
82288;SDS011;71889;39.264;-120.910;2023-11-21T13:34:57;2.22;;;0.75;;
82288;SDS011;71889;39.264;-120.910;2023-11-21T13:37:48;3.45;;;0.70;;
82288;SDS011;71889;39.264;-120.910;2023-11-21T13:40:38;1.50;;;0.63;;
82288;SDS011;71889;39.264;-120.910;2023-11-21T13:43:34;3.95;;;0.35;;
82288;SDS011;71889;39.264;-120.910;2023-11-21T13:46:22;1.83;;;0.30;;
82288;SDS011;71889;39.264;-120.910;2023-11-21T13:49:09;6.93;;;2.13;;
82288;SDS011;71889;39.264;-120.910;2023-11-21T13:51:59;2.63;;;1.00;;
82288;SDS011;71889;39.264;-120.910;2023-11-21T13:57:34;2.35;;;1.27;;
82288;SDS011;71889;39.264;-120.910;2023-11-21T14:00:21;5.75;;;1.73;;
82288;SDS011;71889;39.264;-120.910;2023-11-21T14:03:27;6.85;;;1.55;;
82288;SDS011;71889;39.264;-120.910;2023-11-21T14:06:25;3.13;;;1.48;;
82288;SDS011;71889;39.264;-120.910;2023-11-21T14:09:20;4.13;;;1.20;;
82288;SDS011;71889;39.264;-120.910;2023-11-21T14:12:21;4.55;;;1.40;;
82288;SDS011;71889;39.264;-120.910;2023-11-21T14:15:09;2.97;;;1.42;;
82288;SDS011;71889;39.264;-120.910;2023-11-21T14:17:57;1.98;;;0.70;;
82288;SDS011;71889;39.264;-120.910;2023-11-21T14:20:53;3.30;;;1.13;;
82288;SDS011;71889;39.264;-120.910;2023-11-21T14:23:40;2.38;;;0.90;;
82288;SDS011;71889;39.264;-120.910;2023-11-21T14:26:27;4.07;;;0.80;;
82288;SDS011;71889;39.264;-120.910;2023-11-21T14:29:17;8.60;;;0.80;;
82288;SDS011;71889;39.264;-120.910;2023-11-21T14:32:09;3.50;;;0.75;;
82288;SDS011;71889;39.264;-120.910;2023-11-21T14:34:56;1.40;;;0.43;;
82288;SDS011;71889;39.264;-120.910;2023-11-21T14:37:43;4.50;;;0.80;;
82288;SDS011;71889;39.264;-120.910;2023-11-21T14:40:33;1.88;;;0.80;;
82288;SDS011;71889;39.264;-120.910;2023-11-21T14:43:21;2.35;;;0.90;;
82288;SDS011;71889;39.264;-120.910;2023-11-21T14:46:09;1.35;;;0.75;;
82288;SDS011;71889;39.264;-120.910;2023-11-21T14:49:02;1.20;;;0.57;;
82288;SDS011;71889;39.264;-120.910;2023-11-21T14:52:19;4.10;;;1.50;;
82288;SDS011;71889;39.264;-120.910;2023-11-21T14:55:26;3.50;;;1.15;;
82288;SDS011;71889;39.264;-120.910;2023-11-21T15:01:34;3.80;;;1.33;;
82288;SDS011;71889;39.264;-120.910;2023-11-21T15:04:38;2.75;;;1.42;;
82288;SDS011;71889;39.264;-120.910;2023-11-21T15:07:27;3.63;;;1.40;;
82288;SDS011;71889;39.264;-120.910;2023-11-21T15:10:15;3.95;;;0.98;;
82288;SDS011;71889;39.264;-120.910;2023-11-21T15:13:02;2.70;;;1.02;;
82288;SDS011;71889;39.264;-120.910;2023-11-21T15:15:49;1.95;;;0.70;;
82288;SDS011;71889;39.264;-120.910;2023-11-21T15:18:36;3.47;;;1.15;;
82288;SDS011;71889;39.264;-120.910;2023-11-21T15:21:23;2.17;;;0.80;;
82288;SDS011;71889;39.264;-120.910;2023-11-21T15:24:10;1.45;;;0.43;;
82288;SDS011;71889;39.264;-120.910;2023-11-21T15:26:57;4.70;;;1.00;;
82288;SDS011;71889;39.264;-120.910;2023-11-21T15:29:45;2.35;;;1.10;;
82288;SDS011;71889;39.264;-120.910;2023-11-21T15:32:32;3.03;;;0.93;;
82288;SDS011;71889;39.264;-120.910;2023-11-21T15:35:20;6.53;;;1.48;;
82288;SDS011;71889;39.264;-120.910;2023-11-21T15:38:07;2.38;;;0.93;;
82288;SDS011;71889;39.264;-120.910;2023-11-21T15:40:54;8.95;;;2.65;;
82288;SDS011;71889;39.264;-120.910;2023-11-21T15:43:44;9.52;;;3.28;;
82288;SDS011;71889;39.264;-120.910;2023-11-21T15:46:31;8.00;;;3.90;;
82288;SDS011;71889;39.264;-120.910;2023-11-21T15:49:18;11.38;;;4.78;;
82288;SDS011;71889;39.264;-120.910;2023-11-21T15:52:07;8.98;;;4.18;;
82288;SDS011;71889;39.264;-120.910;2023-11-21T15:54:55;8.32;;;3.45;;
82288;SDS011;71889;39.264;-120.910;2023-11-21T15:57:43;7.47;;;3.78;;
82288;SDS011;71889;39.264;-120.910;2023-11-21T16:00:30;7.38;;;3.25;;
82288;SDS011;71889;39.264;-120.910;2023-11-21T16:03:17;4.80;;;2.45;;
82288;SDS011;71889;39.264;-120.910;2023-11-21T16:06:04;4.35;;;2.30;;
82288;SDS011;71889;39.264;-120.910;2023-11-21T16:08:51;4.78;;;1.90;;
82288;SDS011;71889;39.264;-120.910;2023-11-21T16:11:38;3.88;;;1.90;;
82288;SDS011;71889;39.264;-120.910;2023-11-21T16:14:25;3.97;;;1.80;;
82288;SDS011;71889;39.264;-120.910;2023-11-21T16:16:55;3.17;;;1.95;;
82288;SDS011;71889;39.264;-120.910;2023-11-21T16:19:23;4.50;;;1.83;;
82288;SDS011;71889;39.264;-120.910;2023-11-21T16:21:49;5.10;;;1.92;;
82288;SDS011;71889;39.264;-120.910;2023-11-21T16:24:16;6.60;;;2.47;;
82288;SDS011;71889;39.264;-120.910;2023-11-21T16:26:43;5.28;;;2.30;;
82288;SDS011;71889;39.264;-120.910;2023-11-21T16:29:10;5.57;;;2.70;;
82288;SDS011;71889;39.264;-120.910;2023-11-21T16:31:40;6.07;;;2.75;;
82288;SDS011;71889;39.264;-120.910;2023-11-21T16:36:33;6.57;;;2.75;;
82288;SDS011;71889;39.264;-120.910;2023-11-21T16:39:00;4.68;;;2.47;;
82288;SDS011;71889;39.264;-120.910;2023-11-21T16:41:27;8.82;;;2.90;;
82288;SDS011;71889;39.264;-120.910;2023-11-21T16:43:53;4.70;;;2.30;;